Terminal Aerodrome Forecast
Issued by NWS

Home | Current Version | Previous Version | Text Only | Print | Product List | Glossary On
Versions: 1 2 3 4 5 6 7 8 9 10 11 12 13 14 15
838
FTUS45 KTFX 221752
TAFHVR
TAF
KHVR 221752Z 2218/2318 07007KT 4SM -SN BR SCT020 BKN035
      TEMPO 2218/2221 1SM -SN BR BKN025
     FM222100 03007KT P6SM SCT025 BKN040
      TEMPO 2221/2224 4SM -SN BR BKN025=

USA.gov is the U.S. government's official web portal to all federal, state and local government web resources and services.